createdAt,value
2023-03-30T00:00:20.854Z,114.20
2023-03-30T00:02:50.697Z,109.22
2023-03-30T00:05:18.287Z,110.63
2023-03-30T00:07:45.788Z,118.80
2023-03-30T00:10:14.724Z,122.32
2023-03-30T00:12:43.517Z,109.45
2023-03-30T00:15:12.387Z,113.30
2023-03-30T00:17:39.116Z,117.03
2023-03-30T00:20:11.572Z,121.47
2023-03-30T00:22:42.455Z,111.32
2023-03-30T00:25:11.430Z,116.53
2023-03-30T00:27:38.447Z,120.45
2023-03-30T00:30:07.304Z,113.40
2023-03-30T00:32:34.832Z,112.60
2023-03-30T00:35:01.479Z,124.78
2023-03-30T00:37:29.557Z,132.15
2023-03-30T00:39:56.193Z,123.00
2023-03-30T00:42:22.951Z,125.28
2023-03-30T00:45:18.044Z,122.93
2023-03-30T00:48:01.950Z,118.22
2023-03-30T00:50:55.799Z,120.25
2023-03-30T00:53:32.377Z,124.40
2023-03-30T00:55:59.615Z,119.80
2023-03-30T00:58:27.856Z,121.80
2023-03-30T01:00:54.780Z,124.95
2023-03-30T01:03:30.525Z,115.30
2023-03-30T01:05:58.971Z,110.57
2023-03-30T01:08:32.378Z,107.78
2023-03-30T01:11:01.611Z,110.47
2023-03-30T01:13:30.100Z,103.93
2023-03-30T01:16:27.363Z,97.73
2023-03-30T01:19:18.845Z,105.30
2023-03-30T01:22:12.879Z,104.20
2023-03-30T01:25:18.399Z,103.50
2023-03-30T01:28:18.607Z,96.22
2023-03-30T01:31:06.630Z,94.00
2023-03-30T01:34:07.243Z,90.97
2023-03-30T01:36:50.315Z,102.82
2023-03-30T01:39:30.490Z,101.05
2023-03-30T01:42:02.642Z,96.55
2023-03-30T01:44:45.876Z,96.37
2023-03-30T01:47:31.392Z,119.60
2023-03-30T01:50:23.610Z,124.85
2023-03-30T01:53:03.827Z,118.53
2023-03-30T01:55:37.092Z,112.53
2023-03-30T01:58:09.026Z,118.35
2023-03-30T02:00:36.404Z,129.10
2023-03-30T02:03:12.479Z,131.45
2023-03-30T02:05:40.474Z,130.32
2023-03-30T02:08:13.602Z,129.80
2023-03-30T02:10:41.370Z,130.20
2023-03-30T02:13:08.299Z,122.05
2023-03-30T02:15:39.163Z,120.45
2023-03-30T02:18:05.850Z,126.97
2023-03-30T02:20:33.160Z,125.15
2023-03-30T02:23:01.395Z,124.18
2023-03-30T02:25:28.611Z,126.63
2023-03-30T02:27:55.544Z,118.82
2023-03-30T02:30:22.140Z,119.72
2023-03-30T02:32:53.030Z,125.35
2023-03-30T02:35:25.624Z,124.00
2023-03-30T02:38:23.610Z,128.48
2023-03-30T02:41:18.721Z,141.93
2023-03-30T02:44:10.397Z,131.98
2023-03-30T02:46:42.785Z,129.18
2023-03-30T02:49:27.488Z,128.55
2023-03-30T02:52:01.603Z,137.75
2023-03-30T02:54:58.790Z,134.20
2023-03-30T02:58:23.786Z,137.32
2023-03-30T03:01:12.467Z,141.40
2023-03-30T03:03:58.605Z,141.48
2023-03-30T03:06:27.899Z,144.47
2023-03-30T03:08:56.291Z,143.35
2023-03-30T03:11:27.097Z,142.65
2023-03-30T03:13:53.754Z,141.05
2023-03-30T03:16:20.586Z,146.67
2023-03-30T03:19:03.471Z,144.20
2023-03-30T03:21:30.277Z,151.70
2023-03-30T03:23:56.962Z,138.35
2023-03-30T03:26:30.082Z,140.38
2023-03-30T03:28:56.824Z,141.10
2023-03-30T03:31:24.439Z,138.43
2023-03-30T03:33:51.203Z,135.30
2023-03-30T03:36:26.634Z,138.00
2023-03-30T03:38:53.449Z,134.30
2023-03-30T03:41:20.251Z,128.90
2023-03-30T03:43:47.085Z,113.20
2023-03-30T03:46:16.208Z,123.95
2023-03-30T03:48:43.495Z,127.95
2023-03-30T03:51:10.006Z,135.68
2023-03-30T03:53:36.788Z,136.55
2023-03-30T03:56:07.546Z,131.90
2023-03-30T03:58:34.410Z,136.98
2023-03-30T04:01:02.393Z,132.70
2023-03-30T04:03:29.703Z,136.40
2023-03-30T04:06:00.605Z,125.15
2023-03-30T04:08:28.657Z,130.93
2023-03-30T04:11:12.235Z,126.00
2023-03-30T04:14:06.724Z,130.77
2023-03-30T04:17:02.647Z,133.60
2023-03-30T04:19:59.104Z,134.95
2023-03-30T04:22:42.182Z,128.98
2023-03-30T04:25:28.900Z,136.00
2023-03-30T04:28:16.189Z,134.10
2023-03-30T04:31:10.477Z,134.73
2023-03-30T04:33:56.071Z,136.50
2023-03-30T04:36:48.971Z,140.50
2023-03-30T04:39:37.181Z,142.60
2023-03-30T04:42:14.248Z,134.93
2023-03-30T04:45:02.211Z,133.27
2023-03-30T04:47:31.958Z,139.75
2023-03-30T04:50:17.479Z,139.17
2023-03-30T04:53:02.733Z,139.10
2023-03-30T04:56:04.586Z,144.60
2023-03-30T04:58:43.448Z,145.60
2023-03-30T05:01:35.912Z,142.50
2023-03-30T05:04:10.391Z,143.00
2023-03-30T05:06:57.314Z,142.30
2023-03-30T05:09:24.600Z,136.13
2023-03-30T05:12:09.776Z,140.05
2023-03-30T05:14:46.623Z,146.10
2023-03-30T05:17:27.881Z,144.60
2023-03-30T05:20:23.989Z,141.82
2023-03-30T05:23:13.835Z,138.90
2023-03-30T05:26:04.602Z,138.00
2023-03-30T05:28:51.373Z,142.98
2023-03-30T05:31:31.734Z,141.48
2023-03-30T05:34:04.864Z,137.90
2023-03-30T05:36:44.077Z,139.87
2023-03-30T05:39:25.595Z,139.90
2023-03-30T05:42:11.519Z,138.63
2023-03-30T05:45:02.346Z,139.40
2023-03-30T05:47:48.898Z,140.00
2023-03-30T05:50:38.019Z,139.45
2023-03-30T05:53:09.249Z,137.40
2023-03-30T05:56:02.204Z,137.50
2023-03-30T05:58:47.037Z,139.37
2023-03-30T06:01:18.180Z,137.55
2023-03-30T06:03:47.657Z,135.57
2023-03-30T06:06:14.319Z,134.50
2023-03-30T06:08:43.573Z,138.43
2023-03-30T06:11:15.759Z,133.18
2023-03-30T06:13:50.752Z,138.23
2023-03-30T06:16:17.429Z,134.60
2023-03-30T06:18:44.217Z,137.63
2023-03-30T06:21:13.688Z,133.43
2023-03-30T06:23:52.455Z,128.10
2023-03-30T06:26:21.827Z,132.38
2023-03-30T06:28:48.843Z,136.13
2023-03-30T06:31:15.469Z,136.45
2023-03-30T06:33:43.447Z,139.40
2023-03-30T06:36:12.164Z,136.20
2023-03-30T06:38:39.500Z,138.80
2023-03-30T06:41:09.902Z,135.20
2023-03-30T06:43:39.489Z,137.20
2023-03-30T06:46:17.610Z,136.13
2023-03-30T06:48:46.848Z,139.07
2023-03-30T06:51:34.064Z,136.80
2023-03-30T06:54:01.598Z,136.30
2023-03-30T06:56:28.275Z,138.27
2023-03-30T06:59:16.023Z,132.55
2023-03-30T07:02:17.836Z,135.60
2023-03-30T07:05:04.262Z,135.73
2023-03-30T07:08:07.846Z,134.20
2023-03-30T07:10:36.175Z,138.30
2023-03-30T07:13:03.518Z,137.05
2023-03-30T07:15:31.440Z,139.35
2023-03-30T07:17:58.281Z,136.65
2023-03-30T07:20:27.479Z,133.50
2023-03-30T07:23:12.188Z,134.63
2023-03-30T07:25:40.110Z,136.55
2023-03-30T07:28:14.062Z,135.70
2023-03-30T07:30:41.393Z,135.43
2023-03-30T07:33:09.601Z,133.85
2023-03-30T07:35:36.620Z,135.55
2023-03-30T07:38:06.378Z,135.65
2023-03-30T07:40:36.628Z,136.82
2023-03-30T07:43:05.601Z,132.85
2023-03-30T07:45:32.256Z,136.23
2023-03-30T07:47:59.382Z,137.15
2023-03-30T07:50:26.131Z,134.55
2023-03-30T07:52:55.173Z,137.27
2023-03-30T07:55:21.799Z,137.45
2023-03-30T07:57:54.273Z,136.05
2023-03-30T08:00:22.067Z,134.25
2023-03-30T08:05:42.219Z,132.32
2023-03-30T08:08:15.849Z,135.83
2023-03-30T08:10:42.532Z,139.70
2023-03-30T08:13:09.776Z,141.60
2023-03-30T08:15:36.470Z,139.98
2023-03-30T08:18:06.713Z,135.75
2023-03-30T08:20:34.743Z,124.45
2023-03-30T08:23:02.153Z,127.45
2023-03-30T08:25:28.774Z,126.90
2023-03-30T08:27:56.245Z,121.40
2023-03-30T08:30:23.378Z,129.18
2023-03-30T08:32:51.915Z,132.88
2023-03-30T08:35:18.615Z,129.70
2023-03-30T08:37:45.341Z,136.00
2023-03-30T08:40:13.414Z,133.68
2023-03-30T08:42:54.056Z,129.77
2023-03-30T08:45:20.639Z,125.75
2023-03-30T08:47:50.034Z,121.82
2023-03-30T08:50:31.987Z,132.77
2023-03-30T08:52:58.729Z,122.95
2023-03-30T08:55:47.296Z,85.90
2023-03-30T08:58:24.799Z,82.50
2023-03-30T09:00:59.935Z,78.00
2023-03-30T09:03:31.766Z,77.95
2023-03-30T09:06:06.797Z,77.20
2023-03-30T09:08:34.118Z,77.40
2023-03-30T09:11:02.936Z,80.10
2023-03-30T09:13:37.812Z,74.60
2023-03-30T09:16:27.010Z,74.65
2023-03-30T09:18:55.086Z,76.80
2023-03-30T09:21:23.387Z,81.67
2023-03-30T09:23:58.643Z,84.13
2023-03-30T09:26:46.303Z,97.07
2023-03-30T09:29:24.282Z,98.75
2023-03-30T09:31:56.753Z,101.05
2023-03-30T09:34:45.880Z,105.47
2023-03-30T09:37:18.768Z,104.93
2023-03-30T09:39:46.219Z,98.00
2023-03-30T09:42:21.151Z,113.50
2023-03-30T09:44:55.021Z,119.72
2023-03-30T09:47:31.074Z,127.03
2023-03-30T09:50:04.803Z,128.00
2023-03-30T09:52:37.088Z,129.45
2023-03-30T09:55:25.651Z,132.25
2023-03-30T09:57:53.157Z,131.10
2023-03-30T10:00:26.008Z,120.63
2023-03-30T10:03:00.862Z,127.85
2023-03-30T10:05:27.721Z,132.02
2023-03-30T10:08:05.831Z,125.35
2023-03-30T10:10:37.419Z,115.20
2023-03-30T10:13:08.610Z,108.47
2023-03-30T10:15:39.186Z,113.10
2023-03-30T10:18:23.852Z,125.25
2023-03-30T10:21:04.026Z,119.97
2023-03-30T10:23:35.194Z,121.97
2023-03-30T10:26:03.993Z,115.50
2023-03-30T10:28:33.495Z,109.55
2023-03-30T10:31:05.787Z,113.95
2023-03-30T10:33:38.693Z,114.22
2023-03-30T10:36:07.035Z,102.40
2023-03-30T10:38:34.381Z,104.07
2023-03-30T10:41:07.123Z,116.40
2023-03-30T10:43:35.425Z,123.82
2023-03-30T10:46:20.178Z,118.97
2023-03-30T10:49:09.100Z,117.90
2023-03-30T10:51:52.190Z,123.40
2023-03-30T10:54:49.738Z,102.15
2023-03-30T10:57:18.549Z,98.23
2023-03-30T11:00:15.786Z,107.13
2023-03-30T11:03:17.137Z,97.47
2023-03-30T11:05:48.696Z,89.70
2023-03-30T11:08:23.629Z,90.17
2023-03-30T11:10:54.738Z,90.37
2023-03-30T11:13:27.726Z,88.70
2023-03-30T11:16:01.114Z,94.27
2023-03-30T11:18:34.045Z,91.83
2023-03-30T11:21:28.559Z,94.63
2023-03-30T11:23:57.012Z,95.07
2023-03-30T11:26:35.785Z,97.90
2023-03-30T11:29:31.477Z,97.40
2023-03-30T11:32:40.583Z,102.87
2023-03-30T11:35:24.470Z,109.17
2023-03-30T11:37:57.532Z,110.03
2023-03-30T11:40:34.405Z,109.90
2023-03-30T11:43:01.581Z,128.10
2023-03-30T11:45:43.353Z,127.47
2023-03-30T11:48:46.980Z,130.07
2023-03-30T11:51:38.173Z,127.18
2023-03-30T11:54:34.046Z,128.52
2023-03-30T11:57:13.300Z,128.13
2023-03-30T12:00:10.981Z,110.37
2023-03-30T12:02:52.803Z,99.65
2023-03-30T12:05:33.903Z,90.65
2023-03-30T12:08:18.755Z,112.50
2023-03-30T12:10:48.676Z,118.13
2023-03-30T12:13:18.164Z,122.03
2023-03-30T12:16:15.631Z,112.75
2023-03-30T12:18:49.306Z,98.95
2023-03-30T12:21:40.768Z,84.10
2023-03-30T12:24:15.504Z,85.70
2023-03-30T12:26:46.904Z,86.20
2023-03-30T12:31:51.751Z,95.70
2023-03-30T12:34:19.739Z,103.40
2023-03-30T12:36:49.734Z,98.20
2023-03-30T12:39:21.793Z,98.10
2023-03-30T12:41:58.115Z,91.65
2023-03-30T12:44:39.748Z,131.40
2023-03-30T12:47:27.920Z,110.30
2023-03-30T12:50:04.866Z,139.90
2023-03-30T12:52:40.637Z,148.05
2023-03-30T12:55:28.243Z,154.60
2023-03-30T12:58:08.555Z,149.45
2023-03-30T13:00:53.937Z,146.00
2023-03-30T13:03:39.405Z,141.70
2023-03-30T13:06:13.771Z,151.50
2023-03-30T13:08:41.901Z,148.50
2023-03-30T13:11:19.321Z,148.73
2023-03-30T13:13:47.476Z,146.50
2023-03-30T13:16:14.479Z,148.70
2023-03-30T13:18:55.531Z,145.10
2023-03-30T13:21:24.483Z,146.30
2023-03-30T13:24:04.276Z,144.50
2023-03-30T13:26:41.595Z,154.70
2023-03-30T13:29:11.405Z,159.83
2023-03-30T13:31:47.349Z,147.80
2023-03-30T13:34:40.385Z,163.70
2023-03-30T13:37:09.876Z,162.90
2023-03-30T13:40:10.806Z,155.40
2023-03-30T13:42:49.258Z,159.10
2023-03-30T13:45:23.362Z,162.80
2023-03-30T13:48:20.993Z,159.15
2023-03-30T13:50:53.617Z,158.50
2023-03-30T13:53:20.262Z,160.25
2023-03-30T13:55:50.611Z,219.80
2023-03-30T13:58:23.906Z,195.95
2023-03-30T14:00:54.306Z,195.95
2023-03-30T14:03:40.888Z,200.75
2023-03-30T14:06:20.958Z,170.77
2023-03-30T14:08:49.610Z,162.80
2023-03-30T14:11:19.091Z,164.00
2023-03-30T14:13:48.531Z,159.90
2023-03-30T14:16:21.080Z,154.70
2023-03-30T14:18:47.962Z,154.80
2023-03-30T14:21:17.733Z,153.10
2023-03-30T14:23:54.624Z,152.60
2023-03-30T14:26:26.813Z,153.63
2023-03-30T14:28:58.838Z,153.00
2023-03-30T14:31:28.619Z,152.85
2023-03-30T14:33:55.858Z,153.30
2023-03-30T14:36:22.875Z,156.25
2023-03-30T14:38:51.554Z,194.97
2023-03-30T14:41:23.854Z,216.60
2023-03-30T14:43:52.396Z,233.30
2023-03-30T14:46:19.142Z,215.00
2023-03-30T14:48:49.326Z,196.80
2023-03-30T14:51:26.490Z,184.15
2023-03-30T14:53:54.919Z,181.95
2023-03-30T14:56:22.817Z,163.17
2023-03-30T14:58:51.368Z,163.10
2023-03-30T15:01:23.697Z,169.83
2023-03-30T15:03:50.832Z,171.20
2023-03-30T15:06:22.625Z,177.47
2023-03-30T15:08:50.687Z,162.40
2023-03-30T15:11:26.035Z,168.70
2023-03-30T15:13:57.858Z,167.60
2023-03-30T15:16:29.991Z,161.00
2023-03-30T15:19:02.527Z,201.87
2023-03-30T15:21:31.403Z,162.00
2023-03-30T15:23:59.520Z,196.40
2023-03-30T15:26:27.136Z,173.60
2023-03-30T15:28:58.119Z,217.80
2023-03-30T15:31:28.040Z,184.77
2023-03-30T15:33:57.593Z,196.20
2023-03-30T15:36:26.215Z,171.70
2023-03-30T15:38:55.827Z,194.47
2023-03-30T15:41:24.816Z,174.40
2023-03-30T15:43:57.294Z,144.40
2023-03-30T15:46:25.569Z,146.40
2023-03-30T15:48:53.564Z,148.10
2023-03-30T15:51:30.161Z,144.50
2023-03-30T15:54:03.493Z,156.65
2023-03-30T15:56:49.680Z,165.70
2023-03-30T15:59:18.677Z,173.83
2023-03-30T16:01:56.451Z,186.65
2023-03-30T16:04:24.456Z,197.95
2023-03-30T16:06:52.513Z,248.25
2023-03-30T16:09:19.084Z,166.25
2023-03-30T16:11:46.180Z,191.13
2023-03-30T16:14:15.650Z,181.70
2023-03-30T16:16:42.469Z,192.37
2023-03-30T16:19:11.460Z,210.60
2023-03-30T16:21:38.036Z,191.50
2023-03-30T16:24:05.941Z,188.90
2023-03-30T16:26:32.539Z,190.55
2023-03-30T16:28:59.137Z,228.30
2023-03-30T16:31:26.157Z,186.50
2023-03-30T16:33:52.843Z,191.80
2023-03-30T16:38:47.869Z,221.50
2023-03-30T16:41:18.738Z,222.60
2023-03-30T16:43:45.355Z,193.75
2023-03-30T16:46:14.235Z,221.45
2023-03-30T16:48:40.939Z,199.37
2023-03-30T16:51:08.262Z,216.70
2023-03-30T16:53:34.868Z,202.95
2023-03-30T16:56:01.488Z,204.80
2023-03-30T16:58:28.034Z,185.90
2023-03-30T17:01:02.783Z,211.25
2023-03-30T17:03:29.906Z,181.95
2023-03-30T17:05:56.509Z,227.35
2023-03-30T17:08:25.239Z,217.90
2023-03-30T17:10:54.057Z,201.00
2023-03-30T17:13:20.921Z,235.40
2023-03-30T17:15:47.469Z,203.30
2023-03-30T17:18:22.466Z,195.50
2023-03-30T17:20:52.089Z,216.60
2023-03-30T17:23:23.896Z,195.00
2023-03-30T17:25:51.475Z,187.87
2023-03-30T17:28:38.468Z,190.90
2023-03-30T17:31:12.010Z,159.30
2023-03-30T17:33:38.840Z,152.23
2023-03-30T17:36:26.257Z,163.45
2023-03-30T17:38:53.134Z,164.00
2023-03-30T17:41:20.850Z,166.00
2023-03-30T17:43:48.323Z,160.00
2023-03-30T17:46:17.429Z,164.30
2023-03-30T17:48:44.120Z,157.60
2023-03-30T17:51:11.145Z,170.93
2023-03-30T17:53:37.733Z,167.05
2023-03-30T17:56:05.014Z,166.05
2023-03-30T17:58:34.141Z,164.25
2023-03-30T18:01:02.438Z,160.95
2023-03-30T18:03:31.984Z,162.50
2023-03-30T18:06:00.436Z,160.30
2023-03-30T18:08:27.547Z,141.63
2023-03-30T18:10:56.575Z,140.33
2023-03-30T18:13:24.282Z,139.50
2023-03-30T18:15:54.498Z,137.77
2023-03-30T18:18:24.773Z,144.23
2023-03-30T18:21:02.520Z,140.45
2023-03-30T18:23:30.765Z,141.13
2023-03-30T18:25:57.449Z,140.50
2023-03-30T18:28:27.839Z,143.90
2023-03-30T18:30:57.286Z,134.63
2023-03-30T18:33:24.677Z,135.80
2023-03-30T18:35:52.426Z,132.48
2023-03-30T18:38:20.685Z,134.55
2023-03-30T18:40:49.689Z,126.10
2023-03-30T18:43:16.590Z,132.80
2023-03-30T18:45:46.236Z,131.32
2023-03-30T18:48:15.387Z,134.60
2023-03-30T18:50:46.554Z,132.57
2023-03-30T18:53:15.509Z,139.00
2023-03-30T18:55:45.039Z,136.30
2023-03-30T18:58:14.652Z,139.63
2023-03-30T19:00:41.352Z,135.60
2023-03-30T19:03:08.062Z,137.82
2023-03-30T19:05:35.334Z,132.20
2023-03-30T19:08:02.296Z,135.55
2023-03-30T19:10:30.831Z,131.40
2023-03-30T19:12:57.409Z,134.32
2023-03-30T19:15:26.472Z,141.80
2023-03-30T19:17:53.491Z,136.30
2023-03-30T19:20:22.716Z,129.38
2023-03-30T19:22:50.268Z,131.85
2023-03-30T19:25:18.843Z,130.73
2023-03-30T19:28:01.385Z,127.00
2023-03-30T19:30:29.421Z,125.22
2023-03-30T19:32:59.021Z,127.00
2023-03-30T19:35:26.153Z,126.20
2023-03-30T19:37:52.941Z,125.57
2023-03-30T19:40:20.342Z,125.88
2023-03-30T19:42:47.541Z,123.70
2023-03-30T19:45:15.816Z,127.75
2023-03-30T19:47:43.782Z,123.20
2023-03-30T19:50:18.375Z,121.57
2023-03-30T19:52:48.499Z,121.03
2023-03-30T19:55:15.681Z,121.07
2023-03-30T19:57:42.291Z,119.82
2023-03-30T20:00:15.334Z,135.55
2023-03-30T20:02:50.681Z,129.13
2023-03-30T20:05:18.997Z,124.65
2023-03-30T20:07:46.194Z,124.13
2023-03-30T20:10:16.597Z,128.23
2023-03-30T20:12:43.210Z,127.97
2023-03-30T20:15:11.237Z,130.50
2023-03-30T20:17:38.351Z,128.85
2023-03-30T20:20:08.701Z,131.18
2023-03-30T20:22:43.081Z,133.95
2023-03-30T20:25:12.498Z,137.82
2023-03-30T20:27:40.058Z,137.65
2023-03-30T20:30:08.961Z,142.52
2023-03-30T20:32:35.680Z,139.90
2023-03-30T20:35:02.464Z,139.45
2023-03-30T20:37:29.123Z,143.80
2023-03-30T20:40:03.726Z,139.27
2023-03-30T20:42:31.515Z,130.35
2023-03-30T20:44:59.480Z,138.07
2023-03-30T20:47:30.483Z,141.20
2023-03-30T20:49:58.367Z,136.00
2023-03-30T20:52:25.278Z,142.03
2023-03-30T20:54:52.537Z,135.63
2023-03-30T20:57:20.131Z,140.15
2023-03-30T20:59:48.015Z,139.45
2023-03-30T21:02:14.927Z,143.20
2023-03-30T21:04:42.808Z,144.80
2023-03-30T21:07:10.457Z,146.40
2023-03-30T21:09:37.780Z,144.13
2023-03-30T21:12:04.454Z,140.90
2023-03-30T21:14:31.162Z,146.55
2023-03-30T21:16:57.823Z,140.67
2023-03-30T21:19:24.400Z,135.82
2023-03-30T21:21:51.763Z,142.75
2023-03-30T21:24:18.821Z,143.70
2023-03-30T21:26:45.347Z,140.65
2023-03-30T21:29:11.954Z,145.43
2023-03-30T21:31:38.474Z,144.90
2023-03-30T21:34:07.051Z,145.80
2023-03-30T21:36:33.759Z,141.57
2023-03-30T21:39:00.874Z,147.57
2023-03-30T21:41:28.804Z,146.40
2023-03-30T21:43:55.440Z,141.80
2023-03-30T21:46:23.847Z,141.20
2023-03-30T21:48:53.588Z,140.90
2023-03-30T21:51:23.585Z,144.95
2023-03-30T21:53:51.724Z,141.05
2023-03-30T21:56:20.106Z,147.60
2023-03-30T21:58:46.666Z,148.97
2023-03-30T22:01:13.301Z,146.50
2023-03-30T22:03:41.711Z,145.35
2023-03-30T22:06:10.319Z,147.30
2023-03-30T22:08:37.020Z,147.85
2023-03-30T22:11:06.968Z,142.10
2023-03-30T22:13:33.622Z,147.88
2023-03-30T22:16:06.552Z,144.20
2023-03-30T22:18:34.162Z,145.90
2023-03-30T22:21:03.185Z,144.50
2023-03-30T22:23:30.484Z,146.67
2023-03-30T22:25:57.555Z,142.88
2023-03-30T22:28:24.539Z,148.73
2023-03-30T22:30:51.445Z,142.70
2023-03-30T22:33:18.456Z,146.30
2023-03-30T22:35:46.759Z,147.60
2023-03-30T22:38:13.550Z,145.70
2023-03-30T22:40:41.914Z,142.98
2023-03-30T22:43:09.613Z,141.90
2023-03-30T22:45:36.563Z,143.97
2023-03-30T22:48:03.216Z,142.10
2023-03-30T22:50:30.793Z,143.60
2023-03-30T22:52:57.740Z,134.73
2023-03-30T22:55:24.936Z,144.18
2023-03-30T22:57:52.870Z,143.65
2023-03-30T23:00:21.153Z,142.70
2023-03-30T23:02:49.309Z,142.35
2023-03-30T23:05:16.991Z,141.20
2023-03-30T23:07:44.259Z,139.70
2023-03-30T23:10:14.726Z,142.57
2023-03-30T23:12:42.279Z,139.60
2023-03-30T23:15:10.760Z,142.40
2023-03-30T23:17:37.557Z,142.75
2023-03-30T23:20:06.576Z,140.68
2023-03-30T23:22:33.168Z,141.57
2023-03-30T23:24:59.668Z,141.70
2023-03-30T23:27:26.251Z,145.68
2023-03-30T23:29:52.800Z,135.43
2023-03-30T23:32:19.715Z,144.25
2023-03-30T23:34:46.606Z,145.47
2023-03-30T23:37:13.382Z,148.30
2023-03-30T23:39:40.573Z,153.65
2023-03-30T23:42:07.316Z,141.50
2023-03-30T23:44:34.131Z,158.70
2023-03-30T23:47:02.254Z,149.55
2023-03-30T23:49:28.788Z,166.60
2023-03-30T23:51:55.499Z,192.30
2023-03-30T23:54:22.171Z,171.40
2023-03-30T23:56:57.250Z,172.60
2023-03-30T23:59:24.762Z,181.65
